createdAt,value
2022-11-03T00:00:25.888Z,98.50
2022-11-03T00:02:32.999Z,98.50
2022-11-03T00:04:40.404Z,98.40
2022-11-03T00:06:49.430Z,98.30
2022-11-03T00:08:56.458Z,98.20
2022-11-03T00:11:07.997Z,98.10
2022-11-03T00:13:15.378Z,97.70
2022-11-03T00:15:22.508Z,97.50
2022-11-03T00:17:29.688Z,97.30
2022-11-03T00:19:37.127Z,97.50
2022-11-03T00:21:44.466Z,97.60
2022-11-03T00:23:54.049Z,97.70
2022-11-03T00:26:08.300Z,97.60
2022-11-03T00:28:15.430Z,97.90
2022-11-03T00:30:22.919Z,98.20
2022-11-03T00:32:30.199Z,98.50
2022-11-03T00:34:37.792Z,98.70
2022-11-03T00:36:46.405Z,98.70
2022-11-03T00:38:55.689Z,98.50
2022-11-03T00:41:04.048Z,98.50
2022-11-03T00:43:11.279Z,98.30
2022-11-03T00:45:18.716Z,97.60
2022-11-03T00:47:26.257Z,97.30
2022-11-03T00:49:33.232Z,97.60
2022-11-03T00:51:40.720Z,97.00
2022-11-03T00:53:48.671Z,96.60
2022-11-03T00:55:57.952Z,96.20
2022-11-03T00:58:05.083Z,96.10
2022-11-03T01:00:13.238Z,95.90
2022-11-03T01:02:20.431Z,95.50
2022-11-03T01:04:44.034Z,95.10
2022-11-03T01:06:55.569Z,94.40
2022-11-03T01:09:03.725Z,94.30
2022-11-03T01:11:31.796Z,94.00
2022-11-03T01:13:40.411Z,93.80
2022-11-03T01:15:47.747Z,93.40
2022-11-03T01:17:54.876Z,92.80
2022-11-03T01:20:02.005Z,92.20
2022-11-03T01:22:10.987Z,91.40
2022-11-03T01:24:18.748Z,90.90
2022-11-03T01:26:27.853Z,90.40
2022-11-03T01:28:36.569Z,90.00
2022-11-03T01:30:43.956Z,89.90
2022-11-03T01:32:50.982Z,89.70
2022-11-03T01:34:58.163Z,89.50
2022-11-03T01:37:05.758Z,89.50
2022-11-03T01:39:15.086Z,89.30
2022-11-03T01:41:24.730Z,89.10
2022-11-03T01:43:35.185Z,88.90
2022-11-03T01:45:42.624Z,88.70
2022-11-03T01:47:50.961Z,88.30
2022-11-03T01:50:02.668Z,87.80
2022-11-03T01:52:14.662Z,87.40
2022-11-03T01:54:26.403Z,87.00
2022-11-03T01:56:36.862Z,86.30
2022-11-03T01:58:49.882Z,85.70
2022-11-03T02:01:00.270Z,85.60
2022-11-03T02:03:09.253Z,85.50
2022-11-03T02:05:19.772Z,84.70
2022-11-03T02:07:30.892Z,83.70
2022-11-03T02:09:38.383Z,82.80
2022-11-03T02:12:01.639Z,82.30
2022-11-03T02:14:15.996Z,81.20
2022-11-03T02:16:25.169Z,80.10
2022-11-03T02:18:36.957Z,80.00
2022-11-03T02:20:45.472Z,79.90
2022-11-03T02:23:13.491Z,79.60
2022-11-03T02:25:35.469Z,79.00
2022-11-03T02:27:43.009Z,78.60
2022-11-03T02:29:50.396Z,77.60
2022-11-03T02:32:02.016Z,77.50
2022-11-03T02:34:13.976Z,77.40
2022-11-03T02:36:26.225Z,76.50
2022-11-03T02:38:37.465Z,76.30
2022-11-03T02:40:51.494Z,75.70
2022-11-03T02:42:59.906Z,75.40
2022-11-03T02:45:13.192Z,75.00
2022-11-03T02:47:23.893Z,73.90
2022-11-03T02:49:31.743Z,73.70
2022-11-03T02:51:39.397Z,74.30
2022-11-03T02:53:51.223Z,74.50
2022-11-03T02:56:04.705Z,74.20
2022-11-03T02:58:19.973Z,70.40
2022-11-03T03:00:27.670Z,71.80
2022-11-03T03:02:42.171Z,69.60
2022-11-03T03:04:53.552Z,69.40
2022-11-03T03:07:04.737Z,68.70
2022-11-03T03:09:15.082Z,68.60
2022-11-03T03:11:38.795Z,68.90
2022-11-03T03:13:47.621Z,67.30
2022-11-03T03:16:06.582Z,68.20
2022-11-03T03:18:23.439Z,66.40
2022-11-03T03:20:35.485Z,66.70
2022-11-03T03:22:47.896Z,66.90
2022-11-03T03:25:01.125Z,66.10
2022-11-03T03:27:14.795Z,66.20
2022-11-03T03:29:27.407Z,66.20
2022-11-03T03:31:37.963Z,65.00
2022-11-03T03:33:48.043Z,64.30
2022-11-03T03:35:57.449Z,64.20
2022-11-03T03:38:08.213Z,62.80
2022-11-03T03:40:19.490Z,62.80
2022-11-03T03:42:31.792Z,62.40
2022-11-03T03:44:41.994Z,62.80
2022-11-03T03:46:54.553Z,62.80
2022-11-03T03:49:02.040Z,62.90
2022-11-03T03:51:10.604Z,62.40
2022-11-03T03:53:21.012Z,62.10
2022-11-03T03:55:34.294Z,61.40
2022-11-03T03:57:44.238Z,61.00
2022-11-03T03:59:51.516Z,60.30
2022-11-03T04:01:59.415Z,60.40
2022-11-03T04:04:06.753Z,60.20
2022-11-03T04:06:14.393Z,59.30
2022-11-03T04:08:21.833Z,57.60
2022-11-03T04:10:29.578Z,58.40
2022-11-03T04:12:53.654Z,59.10
2022-11-03T04:15:18.858Z,59.20
2022-11-03T04:17:42.755Z,58.60
2022-11-03T04:20:06.346Z,58.40
2022-11-03T04:22:19.467Z,58.20
2022-11-03T04:24:27.578Z,57.20
2022-11-03T04:26:34.546Z,55.90
2022-11-03T04:28:42.195Z,55.60
2022-11-03T04:30:54.594Z,55.70
2022-11-03T04:33:05.259Z,54.90
2022-11-03T04:35:19.405Z,54.10
2022-11-03T04:37:30.066Z,53.50
2022-11-03T04:39:37.660Z,54.00
2022-11-03T04:41:45.250Z,54.10
2022-11-03T04:43:53.353Z,53.80
2022-11-03T04:46:03.144Z,54.30
2022-11-03T04:48:15.702Z,54.20
2022-11-03T04:50:25.240Z,54.20
2022-11-03T04:52:34.463Z,54.10
2022-11-03T04:54:42.010Z,53.60
2022-11-03T04:56:49.139Z,53.20
2022-11-03T04:58:57.498Z,52.80
2022-11-03T05:01:08.002Z,52.30
2022-11-03T05:03:20.308Z,50.90
2022-11-03T05:05:29.537Z,51.60
2022-11-03T05:07:38.974Z,52.20
2022-11-03T05:09:46.000Z,52.20
2022-11-03T05:11:53.642Z,52.20
2022-11-03T05:14:04.358Z,51.00
2022-11-03T05:16:14.048Z,50.50
2022-11-03T05:18:25.072Z,51.00
2022-11-03T05:20:37.476Z,50.90
2022-11-03T05:22:44.757Z,50.60
2022-11-03T05:24:54.246Z,50.60
2022-11-03T05:27:03.217Z,49.80
2022-11-03T05:29:18.845Z,49.40
2022-11-03T05:31:31.914Z,48.20
2022-11-03T05:33:40.125Z,46.60
2022-11-03T05:35:47.457Z,48.40
2022-11-03T05:37:55.767Z,49.00
2022-11-03T05:40:05.405Z,48.90
2022-11-03T05:42:28.355Z,49.00
2022-11-03T05:44:38.046Z,46.50
2022-11-03T05:46:47.532Z,48.70
2022-11-03T05:48:54.969Z,49.00
2022-11-03T05:51:03.122Z,48.70
2022-11-03T05:53:22.696Z,48.80
2022-11-03T05:55:33.413Z,49.30
2022-11-03T05:57:40.747Z,49.20
2022-11-03T05:59:49.564Z,48.50
2022-11-03T06:02:01.827Z,49.10
2022-11-03T06:04:22.001Z,48.90
2022-11-03T06:06:32.541Z,48.40
2022-11-03T06:08:43.212Z,49.10
2022-11-03T06:10:55.838Z,49.10
2022-11-03T06:13:06.158Z,47.80
2022-11-03T06:15:27.763Z,48.50
2022-11-03T06:17:38.834Z,45.80
2022-11-03T06:19:49.085Z,47.40
2022-11-03T06:21:58.370Z,46.80
2022-11-03T06:24:05.877Z,46.20
2022-11-03T06:26:18.414Z,46.70
2022-11-03T06:28:28.616Z,45.60
2022-11-03T06:30:36.963Z,45.80
2022-11-03T06:32:45.796Z,45.30
2022-11-03T06:34:55.641Z,45.40
2022-11-03T06:37:12.536Z,46.20
2022-11-03T06:39:25.926Z,46.50
2022-11-03T06:41:34.276Z,45.90
2022-11-03T06:43:44.487Z,43.70
2022-11-03T06:45:54.591Z,46.00
2022-11-03T06:48:06.070Z,45.90
2022-11-03T06:50:25.699Z,45.60
2022-11-03T06:52:35.913Z,45.00
2022-11-03T06:54:43.282Z,46.60
2022-11-03T06:56:50.667Z,46.60
2022-11-03T06:58:59.438Z,46.30
2022-11-03T07:01:14.502Z,46.40
2022-11-03T07:03:27.838Z,47.40
2022-11-03T07:05:36.356Z,47.60
2022-11-03T07:07:43.678Z,47.90
2022-11-03T07:09:51.423Z,47.40
2022-11-03T07:12:01.011Z,47.60
2022-11-03T07:14:15.616Z,46.80
2022-11-03T07:16:27.152Z,46.10
2022-11-03T07:18:39.148Z,47.10
2022-11-03T07:20:46.121Z,47.50
2022-11-03T07:22:55.964Z,47.80
2022-11-03T07:25:06.883Z,47.70
2022-11-03T07:27:23.691Z,47.40
2022-11-03T07:29:32.922Z,47.30
2022-11-03T07:31:40.552Z,46.90
2022-11-03T07:33:49.741Z,47.00
2022-11-03T07:36:15.894Z,46.60
2022-11-03T07:38:24.841Z,47.00
2022-11-03T07:40:35.146Z,47.50
2022-11-03T07:42:42.791Z,47.80
2022-11-03T07:44:51.052Z,48.10
2022-11-03T07:46:58.946Z,47.70
2022-11-03T07:49:10.281Z,47.70
2022-11-03T07:51:24.161Z,47.60
2022-11-03T07:53:38.975Z,47.40
2022-11-03T07:55:49.031Z,47.20
2022-11-03T07:57:56.360Z,47.50
2022-11-03T08:00:10.765Z,47.50
2022-11-03T08:02:33.096Z,47.20
2022-11-03T08:04:42.529Z,47.60
2022-11-03T08:06:50.275Z,48.00
2022-11-03T08:08:57.814Z,48.80
2022-11-03T08:11:05.408Z,49.40
2022-11-03T08:13:12.903Z,49.40
2022-11-03T08:15:20.227Z,48.90
2022-11-03T08:17:27.615Z,48.70
2022-11-03T08:19:35.002Z,48.20
2022-11-03T08:21:44.336Z,48.50
2022-11-03T08:23:51.679Z,49.70
2022-11-03T08:25:59.054Z,50.20
2022-11-03T08:28:06.082Z,49.80
2022-11-03T08:30:13.981Z,49.40
2022-11-03T08:32:21.215Z,50.30
2022-11-03T08:34:28.703Z,49.70
2022-11-03T08:36:36.041Z,49.30
2022-11-03T08:38:45.473Z,49.40
2022-11-03T08:40:55.342Z,49.80
2022-11-03T08:43:04.136Z,50.10
2022-11-03T08:45:12.292Z,49.80
2022-11-03T08:47:20.138Z,50.20
2022-11-03T08:49:27.833Z,50.00
2022-11-03T08:51:36.988Z,50.70
2022-11-03T08:53:51.669Z,50.60
2022-11-03T08:55:59.361Z,50.90
2022-11-03T08:58:07.171Z,50.50
2022-11-03T09:00:16.079Z,50.20
2022-11-03T09:02:23.252Z,50.20
2022-11-03T09:04:30.748Z,50.80
2022-11-03T09:06:38.035Z,51.30
2022-11-03T09:11:14.413Z,52.30
2022-11-03T09:13:21.751Z,51.60
2022-11-03T09:15:28.778Z,51.50
2022-11-03T09:17:38.474Z,51.50
2022-11-03T09:19:47.645Z,51.70
2022-11-03T09:21:55.086Z,51.40
2022-11-03T09:24:02.064Z,51.70
2022-11-03T09:26:09.867Z,52.10
2022-11-03T09:28:19.238Z,52.30
2022-11-03T09:30:27.137Z,52.40
2022-11-03T09:32:34.218Z,52.30
2022-11-03T09:34:41.655Z,52.50
2022-11-03T09:36:53.108Z,52.90
2022-11-03T09:39:01.076Z,53.30
2022-11-03T09:41:18.744Z,53.40
2022-11-03T09:43:36.083Z,53.40
2022-11-03T09:45:43.366Z,53.20
2022-11-03T09:47:50.908Z,53.10
2022-11-03T09:49:58.705Z,53.40
2022-11-03T09:52:07.165Z,53.60
2022-11-03T09:54:18.083Z,53.80
2022-11-03T09:56:28.312Z,55.00
2022-11-03T09:58:37.728Z,55.10
2022-11-03T10:00:45.829Z,55.40
2022-11-03T10:02:53.722Z,55.70
2022-11-03T10:05:08.247Z,56.00
2022-11-03T10:07:17.404Z,56.50
2022-11-03T10:09:25.612Z,56.60
2022-11-03T10:11:33.098Z,57.50
2022-11-03T10:13:44.685Z,58.00
2022-11-03T10:15:51.967Z,58.70
2022-11-03T10:18:00.276Z,59.20
2022-11-03T10:20:10.274Z,60.00
2022-11-03T10:22:18.017Z,60.40
2022-11-03T10:24:25.417Z,60.50
2022-11-03T10:26:38.475Z,61.00
2022-11-03T10:29:01.990Z,61.30
2022-11-03T10:31:12.185Z,61.90
2022-11-03T10:33:35.044Z,61.60
2022-11-03T10:35:42.939Z,62.00
2022-11-03T10:37:50.074Z,62.40
2022-11-03T10:39:59.299Z,62.50
2022-11-03T10:42:06.582Z,62.50
2022-11-03T10:44:22.431Z,63.80
2022-11-03T10:46:49.554Z,66.70
2022-11-03T10:51:18.114Z,69.30
2022-11-03T10:55:33.620Z,68.50
2022-11-03T10:57:41.654Z,69.60
2022-11-03T10:59:53.042Z,69.50
2022-11-03T11:02:02.072Z,71.20
2022-11-03T11:04:09.625Z,71.60
2022-11-03T11:06:24.929Z,71.60
2022-11-03T11:08:32.306Z,72.00
2022-11-03T11:10:40.057Z,72.50
2022-11-03T11:13:08.786Z,72.70
2022-11-03T11:15:42.953Z,74.40
2022-11-03T11:17:54.082Z,74.10
2022-11-03T11:20:31.571Z,73.50
2022-11-03T11:22:38.550Z,72.50
2022-11-03T11:25:02.370Z,72.70
2022-11-03T11:27:47.951Z,73.10
2022-11-03T11:29:55.391Z,74.30
2022-11-03T11:32:24.126Z,74.40
2022-11-03T11:34:44.114Z,74.70
2022-11-03T11:37:11.923Z,74.90
2022-11-03T11:39:48.748Z,74.50
2022-11-03T11:42:14.853Z,75.60
2022-11-03T11:44:54.517Z,75.70
2022-11-03T11:47:03.798Z,76.20
2022-11-03T11:49:21.681Z,75.90
2022-11-03T11:51:29.777Z,77.10
2022-11-03T11:53:41.214Z,76.90
2022-11-03T11:55:57.151Z,76.60
2022-11-03T11:58:06.483Z,76.60
2022-11-03T12:00:23.445Z,76.60
2022-11-03T12:02:34.266Z,76.90
2022-11-03T12:04:42.009Z,77.60
2022-11-03T12:06:49.086Z,77.60
2022-11-03T12:09:09.882Z,76.70
2022-11-03T12:11:17.410Z,76.20
2022-11-03T12:13:52.368Z,76.00
2022-11-03T12:16:00.564Z,76.20
2022-11-03T12:18:40.834Z,76.10
2022-11-03T12:20:50.664Z,76.80
2022-11-03T12:22:57.744Z,76.80
2022-11-03T12:25:09.482Z,77.20
2022-11-03T12:27:44.770Z,77.30
2022-11-03T12:29:52.574Z,78.20
2022-11-03T12:31:59.548Z,79.00
2022-11-03T12:34:08.616Z,79.30
2022-11-03T12:36:15.742Z,79.70
2022-11-03T12:38:23.037Z,79.50
2022-11-03T12:40:30.372Z,79.70
2022-11-03T12:42:37.914Z,79.60
2022-11-03T12:44:44.885Z,78.70
2022-11-03T12:46:52.175Z,78.30
2022-11-03T12:48:59.136Z,79.10
2022-11-03T12:51:08.686Z,79.70
2022-11-03T12:53:15.817Z,80.20
2022-11-03T12:55:22.968Z,80.50
2022-11-03T12:57:30.590Z,80.30
2022-11-03T12:59:37.772Z,80.00
2022-11-03T13:01:45.241Z,79.90
2022-11-03T13:03:52.339Z,79.60
2022-11-03T13:06:00.119Z,79.70
2022-11-03T13:08:09.378Z,80.20
2022-11-03T13:10:17.218Z,80.40
2022-11-03T13:12:37.759Z,80.50
2022-11-03T13:14:46.313Z,80.80
2022-11-03T13:16:55.655Z,80.80
2022-11-03T13:19:03.500Z,80.80
2022-11-03T13:21:10.829Z,81.10
2022-11-03T13:23:23.117Z,81.80
2022-11-03T13:25:31.447Z,81.20
2022-11-03T13:27:39.148Z,81.00
2022-11-03T13:29:46.117Z,81.20
2022-11-03T13:31:53.555Z,81.60
2022-11-03T13:34:00.887Z,81.80
2022-11-03T13:36:08.848Z,81.90
2022-11-03T13:38:16.021Z,82.30
2022-11-03T13:42:52.606Z,82.80
2022-11-03T13:45:00.625Z,83.10
2022-11-03T13:47:11.516Z,83.90
2022-11-03T13:51:47.063Z,85.00
2022-11-03T13:56:23.522Z,85.60
2022-11-03T14:00:57.962Z,85.70
2022-11-03T14:05:32.384Z,86.50
2022-11-03T14:07:39.612Z,87.10
2022-11-03T14:09:46.798Z,87.20
2022-11-03T14:12:12.308Z,87.00
2022-11-03T14:14:19.489Z,86.80
2022-11-03T14:16:27.056Z,86.40
2022-11-03T14:18:34.196Z,86.20
2022-11-03T14:20:41.498Z,86.00
2022-11-03T14:22:48.727Z,86.00
2022-11-03T14:24:56.472Z,86.30
2022-11-03T14:27:05.600Z,86.40
2022-11-03T14:29:12.782Z,86.40
2022-11-03T14:31:19.992Z,86.50
2022-11-03T14:33:27.385Z,86.50
2022-11-03T14:35:34.586Z,86.20
2022-11-03T14:37:42.131Z,86.30
2022-11-03T14:39:49.255Z,86.70
2022-11-03T14:42:07.343Z,86.70
2022-11-03T14:44:16.110Z,86.80
2022-11-03T14:46:23.796Z,87.20
2022-11-03T14:48:31.088Z,87.00
2022-11-03T14:50:39.293Z,87.10
2022-11-03T14:52:49.188Z,87.10
2022-11-03T14:54:56.626Z,87.20
2022-11-03T14:57:03.857Z,87.20
2022-11-03T14:59:11.305Z,87.30
2022-11-03T15:01:20.393Z,87.40
2022-11-03T15:03:28.065Z,87.60
2022-11-03T15:05:47.231Z,87.60
2022-11-03T15:07:54.871Z,87.60
2022-11-03T15:10:02.206Z,88.00
2022-11-03T15:12:10.007Z,87.90
2022-11-03T15:14:17.131Z,88.20
2022-11-03T15:16:26.517Z,88.50
2022-11-03T15:18:34.004Z,89.30
2022-11-03T15:20:41.122Z,89.40
2022-11-03T15:25:18.693Z,90.10
2022-11-03T15:27:29.457Z,90.10
2022-11-03T15:29:36.998Z,90.00
2022-11-03T15:31:48.186Z,89.60
2022-11-03T15:33:55.764Z,89.40
2022-11-03T15:36:08.449Z,89.40
2022-11-03T15:38:15.810Z,89.30
2022-11-03T15:40:23.147Z,89.40
2022-11-03T15:42:30.327Z,89.40
2022-11-03T15:44:37.919Z,89.60
2022-11-03T15:46:46.687Z,89.70
2022-11-03T15:48:55.508Z,89.40
2022-11-03T15:51:02.588Z,89.40
2022-11-03T15:53:09.973Z,89.20
2022-11-03T15:55:17.360Z,89.30
2022-11-03T15:57:24.951Z,89.20
2022-11-03T15:59:32.131Z,89.30
2022-11-03T16:01:39.704Z,89.30
2022-11-03T16:03:49.007Z,89.60
2022-11-03T16:05:56.748Z,89.70
2022-11-03T16:08:03.879Z,90.00
2022-11-03T16:10:11.983Z,90.50
2022-11-03T16:12:19.012Z,90.60
2022-11-03T16:14:27.038Z,90.80
2022-11-03T16:16:34.144Z,90.90
2022-11-03T16:18:41.733Z,91.10
2022-11-03T16:20:50.655Z,91.50
2022-11-03T16:22:58.200Z,91.90
2022-11-03T16:25:12.118Z,92.20
2022-11-03T16:27:21.829Z,92.50
2022-11-03T16:29:28.904Z,92.60
2022-11-03T16:31:36.243Z,92.40
2022-11-03T16:33:43.473Z,92.20
2022-11-03T16:35:52.702Z,92.00
2022-11-03T16:37:59.992Z,91.70
2022-11-03T16:40:08.002Z,91.50
2022-11-03T16:42:15.021Z,91.20
2022-11-03T16:44:22.402Z,91.20
2022-11-03T16:46:29.483Z,92.00
2022-11-03T16:48:36.770Z,92.30
2022-11-03T16:50:44.945Z,92.60
2022-11-03T16:52:54.253Z,92.50
2022-11-03T16:55:01.280Z,92.30
2022-11-03T16:57:08.870Z,92.00
2022-11-03T16:59:16.106Z,91.80
2022-11-03T17:01:23.593Z,91.80
2022-11-03T17:03:30.927Z,91.80
2022-11-03T17:05:39.440Z,92.00
2022-11-03T17:07:52.868Z,92.20
2022-11-03T17:10:03.075Z,92.40
2022-11-03T17:12:10.559Z,92.30
2022-11-03T17:14:18.255Z,92.00
2022-11-03T17:16:25.230Z,91.70
2022-11-03T17:18:32.873Z,91.40
2022-11-03T17:20:39.901Z,91.70
2022-11-03T17:22:48.641Z,92.10
2022-11-03T17:24:55.600Z,92.30
2022-11-03T17:27:07.333Z,92.40
2022-11-03T17:29:20.506Z,92.10
2022-11-03T17:31:28.917Z,92.50
2022-11-03T17:33:36.664Z,92.40
2022-11-03T17:35:46.611Z,93.00
2022-11-03T17:37:54.815Z,93.10
2022-11-03T17:40:01.897Z,93.40
2022-11-03T17:42:18.904Z,93.30
2022-11-03T17:44:25.931Z,93.70
2022-11-03T17:46:33.625Z,94.10
2022-11-03T17:48:41.215Z,94.20
2022-11-03T17:50:51.367Z,94.50
2022-11-03T17:52:58.806Z,94.40
2022-11-03T17:55:10.289Z,94.70
2022-11-03T17:57:21.925Z,94.30
2022-11-03T17:59:29.668Z,94.20
2022-11-03T18:01:37.300Z,94.10
2022-11-03T18:03:44.593Z,94.20
2022-11-03T18:05:51.975Z,94.10
2022-11-03T18:07:59.880Z,94.70
2022-11-03T18:10:07.425Z,95.10
2022-11-03T18:12:36.104Z,95.10
2022-11-03T18:14:43.184Z,95.10
2022-11-03T18:16:50.980Z,95.20
2022-11-03T18:18:59.031Z,95.00
2022-11-03T18:21:07.442Z,94.80
2022-11-03T18:23:19.284Z,94.30
2022-11-03T18:25:25.645Z,93.90
2022-11-03T18:27:34.876Z,93.60
2022-11-03T18:29:42.266Z,93.70
2022-11-03T18:31:51.388Z,94.10
2022-11-03T18:33:58.775Z,94.40
2022-11-03T18:36:08.927Z,94.50
2022-11-03T18:38:17.850Z,94.50
2022-11-03T18:40:25.134Z,94.50
2022-11-03T18:42:34.262Z,94.40
2022-11-03T18:44:42.465Z,94.50
2022-11-03T18:46:49.854Z,94.30
2022-11-03T18:48:57.034Z,94.30
2022-11-03T18:51:04.317Z,94.20
2022-11-03T18:53:16.465Z,93.90
2022-11-03T18:55:23.801Z,93.80
2022-11-03T18:57:32.724Z,93.90
2022-11-03T18:59:43.079Z,93.90
2022-11-03T19:01:50.623Z,94.30
2022-11-03T19:03:59.233Z,94.30
2022-11-03T19:06:06.570Z,94.60
2022-11-03T19:08:19.384Z,94.70
2022-11-03T19:10:26.718Z,94.40
2022-11-03T19:12:39.045Z,94.00
2022-11-03T19:14:48.915Z,93.60
2022-11-03T19:19:25.199Z,93.00
2022-11-03T19:21:32.736Z,93.10
2022-11-03T19:23:39.759Z,93.00
2022-11-03T19:25:47.864Z,92.90
2022-11-03T19:27:57.041Z,92.80
2022-11-03T19:30:05.555Z,93.00
2022-11-03T19:32:18.776Z,93.00
2022-11-03T19:34:29.801Z,93.10
2022-11-03T19:36:36.981Z,93.40
2022-11-03T19:38:44.775Z,93.50
2022-11-03T19:41:08.240Z,93.90
2022-11-03T19:43:17.212Z,94.20
2022-11-03T19:45:25.419Z,94.30
2022-11-03T19:47:36.645Z,94.30
2022-11-03T19:49:43.621Z,94.10
2022-11-03T19:51:50.906Z,93.60
2022-11-03T19:53:57.934Z,93.20
2022-11-03T19:56:05.474Z,93.30
2022-11-03T19:58:19.670Z,93.30
2022-11-03T20:00:27.266Z,93.20
2022-11-03T20:02:34.761Z,93.30
2022-11-03T20:04:45.414Z,93.10
2022-11-03T20:06:52.696Z,93.10
2022-11-03T20:09:00.390Z,93.00
2022-11-03T20:11:09.261Z,93.20
2022-11-03T20:13:21.461Z,93.40
2022-11-03T20:15:28.436Z,93.40
2022-11-03T20:17:35.670Z,93.40
2022-11-03T20:19:43.108Z,93.50
2022-11-03T20:21:50.698Z,93.40
2022-11-03T20:23:57.932Z,93.50
2022-11-03T20:26:05.625Z,93.30
2022-11-03T20:28:22.791Z,93.40
2022-11-03T20:30:31.510Z,93.30
2022-11-03T20:32:38.793Z,93.10
2022-11-03T20:34:47.562Z,93.30
2022-11-03T20:36:54.488Z,93.30
2022-11-03T20:39:02.180Z,93.30
2022-11-03T20:41:17.044Z,93.70
2022-11-03T20:43:30.215Z,93.90
2022-11-03T20:45:37.499Z,94.20
2022-11-03T20:47:48.163Z,94.50
2022-11-03T20:49:55.806Z,94.70
2022-11-03T20:52:02.985Z,94.90
2022-11-03T20:54:17.645Z,95.30
2022-11-03T20:56:27.024Z,95.30
2022-11-03T20:58:36.152Z,95.20
2022-11-03T21:00:44.357Z,95.00
2022-11-03T21:02:52.153Z,95.10
2022-11-03T21:04:59.645Z,95.40
2022-11-03T21:07:06.677Z,95.60
2022-11-03T21:09:16.257Z,95.30
2022-11-03T21:11:28.431Z,95.60
2022-11-03T21:13:37.534Z,95.30
2022-11-03T21:16:22.973Z,95.00
2022-11-03T21:18:45.554Z,94.90
2022-11-03T21:20:52.736Z,94.40
2022-11-03T21:23:01.046Z,94.40
2022-11-03T21:25:10.068Z,94.70
2022-11-03T21:27:19.041Z,94.90
2022-11-03T21:29:45.707Z,95.10
2022-11-03T21:31:55.524Z,95.00
2022-11-03T21:34:02.602Z,94.70
2022-11-03T21:36:10.757Z,94.90
2022-11-03T21:38:18.759Z,94.90
2022-11-03T21:40:26.400Z,94.70
2022-11-03T21:42:49.863Z,94.80
2022-11-03T21:44:59.554Z,94.70
2022-11-03T21:47:06.583Z,94.40
2022-11-03T21:49:30.762Z,94.20
2022-11-03T21:51:37.790Z,94.20
2022-11-03T21:53:44.973Z,94.20
2022-11-03T21:55:52.410Z,94.10
2022-11-03T21:57:59.847Z,94.20
2022-11-03T22:00:09.641Z,94.10
2022-11-03T22:02:17.296Z,94.40
2022-11-03T22:04:25.490Z,94.40
2022-11-03T22:06:33.028Z,94.20
2022-11-03T22:08:41.081Z,94.60
2022-11-03T22:10:48.467Z,94.80
2022-11-03T22:12:55.443Z,94.90
2022-11-03T22:15:19.215Z,95.10
2022-11-03T22:17:28.033Z,95.30
2022-11-03T22:19:54.211Z,95.70
2022-11-03T22:22:23.820Z,95.50
2022-11-03T22:24:47.435Z,95.60
2022-11-03T22:27:00.913Z,96.10
2022-11-03T22:29:24.940Z,96.40
2022-11-03T22:31:43.898Z,96.60
2022-11-03T22:34:09.718Z,96.60
2022-11-03T22:36:29.544Z,96.70
2022-11-03T22:38:53.570Z,96.40
2022-11-03T22:41:17.597Z,96.40
2022-11-03T22:43:40.754Z,96.40
2022-11-03T22:45:55.667Z,96.50
2022-11-03T22:48:02.852Z,96.60
2022-11-03T22:50:12.556Z,96.50
2022-11-03T22:52:19.570Z,96.20
2022-11-03T22:54:25.570Z,96.10
2022-11-03T22:56:33.726Z,95.80
2022-11-03T22:58:41.370Z,95.40
2022-11-03T23:00:48.637Z,95.30
2022-11-03T23:02:57.830Z,95.30
2022-11-03T23:05:05.216Z,95.10
2022-11-03T23:07:14.454Z,94.90
2022-11-03T23:09:21.627Z,94.60
2022-11-03T23:11:31.984Z,94.60
2022-11-03T23:13:39.730Z,94.70
2022-11-03T23:15:47.217Z,94.30
2022-11-03T23:18:10.731Z,94.50
2022-11-03T23:20:34.397Z,94.70
2022-11-03T23:22:43.423Z,95.00
2022-11-03T23:25:01.464Z,94.90
2022-11-03T23:27:09.307Z,95.30
2022-11-03T23:29:17.615Z,96.00
2022-11-03T23:31:24.661Z,96.50
2022-11-03T23:33:32.141Z,96.50
2022-11-03T23:35:40.366Z,96.80
2022-11-03T23:37:49.618Z,97.00
2022-11-03T23:39:56.750Z,97.20
2022-11-03T23:42:04.237Z,97.20
2022-11-03T23:44:12.900Z,97.30
2022-11-03T23:46:38.670Z,97.20
2022-11-03T23:48:47.541Z,97.20
2022-11-03T23:50:56.207Z,97.00
2022-11-03T23:53:04.976Z,96.90
2022-11-03T23:55:13.131Z,96.70
2022-11-03T23:57:37.004Z,96.70
